Time;durP1;ratioP1;P1;durP2;ratioP2;P2;SDS_P1;SDS_P2;PMS_P1;PMS_P2;Temp;Humidity;BMP_temperature;BMP_pressure;BME280_temperature;BME280_humidity;BME280_pressure;Samples;Min_cycle;Max_cycle;Signal;HPM_P1;HPM_P2
2023/05/14 00:00:41;;;;;;;;;;;15.90;66.00;;;;;;6201310;22;20054;-86
2023/05/14 00:03:12;;;;;;;5.15;3.35;;;15.90;66.20;;;;;;6250040;22;19919;-86
2023/05/14 00:05:41;;;;;;;4.40;3.20;;;15.80;66.50;;;;;;6275427;22;20019;-86
2023/05/14 00:08:09;;;;;;;4.40;3.40;;;15.70;66.70;;;;;;6224678;22;20342;-86
2023/05/14 00:10:36;;;;;;;6.78;3.70;;;15.70;66.80;;;;;;6249788;22;20023;-86
2023/05/14 00:13:03;;;;;;;5.57;3.70;;;15.60;67.00;;;;;;6250067;22;20095;-86
2023/05/14 00:15:31;;;;;;;6.25;3.70;;;15.50;67.10;;;;;;6249526;22;20019;-85
2023/05/14 00:18:00;;;;;;;5.10;3.35;;;15.50;67.30;;;;;;6224843;22;20024;-85
2023/05/14 00:20:27;;;;;;;4.18;2.97;;;15.40;67.40;;;;;;6249217;22;20517;-85
2023/05/14 00:22:55;;;;;;;4.38;3.00;;;15.40;67.50;;;;;;6249459;22;20081;-86
2023/05/14 00:25:25;;;;;;;4.45;3.15;;;15.40;67.70;;;;;;6225558;22;20023;-86
2023/05/14 00:27:52;;;;;;;5.40;3.63;;;15.30;67.80;;;;;;6200224;22;20074;-86
2023/05/14 00:30:23;;;;;;;4.82;3.17;;;15.30;67.90;;;;;;6224793;22;20019;-86
2023/05/14 00:32:50;;;;;;;5.00;3.33;;;15.20;68.00;;;;;;6250127;22;20026;-86
2023/05/14 00:35:19;;;;;;;7.28;3.30;;;15.20;68.40;;;;;;6249926;22;20107;-85
2023/05/14 00:37:46;;;;;;;5.25;3.42;;;15.10;68.40;;;;;;6249406;22;20102;-85
2023/05/14 00:40:14;;;;;;;4.88;3.05;;;15.10;68.50;;;;;;6248996;22;20514;-85
2023/05/14 00:42:41;;;;;;;9.15;3.92;;;15.10;68.60;;;;;;6199386;22;20095;-85
2023/05/14 00:45:16;;;;;;;5.10;3.38;;;15.00;69.40;;;;;;6223776;22;20039;-86
2023/05/14 00:47:43;;;;;;;5.40;3.00;;;15.00;68.80;;;;;;6249162;22;20095;-85
2023/05/14 00:50:14;;;;;;;4.45;3.20;;;15.00;69.70;;;;;;6224232;22;20111;-86
2023/05/14 00:52:42;;;;;;;5.38;3.38;;;15.00;69.10;;;;;;6224618;22;20511;-86
2023/05/14 00:55:15;;;;;;;5.55;3.70;;;14.90;69.20;;;;;;6249313;22;20100;-85
2023/05/14 00:57:45;;;;;;;6.20;4.03;;;14.90;69.40;;;;;;6250446;22;20349;-85
2023/05/14 01:00:13;;;;;;;5.95;3.42;;;14.90;69.60;;;;;;6249180;22;20480;-86
2023/05/14 01:02:40;;;;;;;7.43;3.60;;;14.90;69.60;;;;;;6199027;22;20019;-86
2023/05/14 01:05:08;;;;;;;6.10;3.05;;;14.90;69.50;;;;;;6224429;22;20016;-86
2023/05/14 01:07:44;;;;;;;6.85;3.58;;;14.90;69.50;;;;;;6250281;22;20015;-85
2023/05/14 01:10:50;;;;;;;5.13;3.15;;;14.90;69.50;;;;;;6251354;22;20019;-86
2023/05/14 01:13:35;;;;;;;5.25;3.13;;;14.90;69.50;;;;;;6218497;22;20091;-85
2023/05/14 01:16:09;;;;;;;6.32;3.47;;;14.90;69.50;;;;;;6277142;22;20050;-85
2023/05/14 01:18:37;;;;;;;4.20;2.65;;;14.90;69.60;;;;;;6276598;22;20450;-85
2023/05/14 01:21:05;;;;;;;5.13;2.88;;;14.90;69.60;;;;;;6225978;22;20065;-85
2023/05/14 01:23:32;;;;;;;5.43;3.42;;;14.90;69.70;;;;;;6251250;22;20099;-85
2023/05/14 01:26:02;;;;;;;5.50;3.28;;;14.90;69.80;;;;;;6251628;22;20107;-86
2023/05/14 01:28:33;;;;;;;;;;;14.90;69.90;;;;;;6203020;22;20024;-85
2023/05/14 01:31:08;;;;;;;5.93;3.70;;;14.80;69.90;;;;;;6276111;22;19915;-85
2023/05/14 01:33:36;;;;;;;6.53;3.58;;;14.80;70.10;;;;;;6251116;22;20020;-85
2023/05/14 01:36:04;;;;;;;6.10;3.22;;;14.80;70.30;;;;;;6276150;22;20015;-85
2023/05/14 01:38:35;;;;;;;6.07;4.00;;;14.70;70.30;;;;;;6276013;22;20019;-85
2023/05/14 01:41:04;;;;;;;5.00;3.90;;;14.70;70.60;;;;;;6250648;22;20102;-86
2023/05/14 01:43:34;;;;;;;5.97;3.65;;;14.60;70.60;;;;;;6250738;22;20051;-85
2023/05/14 01:46:03;;;;;;;5.35;3.80;;;14.60;70.90;;;;;;6226156;22;20384;-85
2023/05/14 01:48:31;;;;;;;7.18;3.90;;;14.60;71.10;;;;;;6250848;22;20030;-85
2023/05/14 01:50:58;;;;;;;5.95;3.63;;;14.50;71.10;;;;;;6225697;22;20035;-85
2023/05/14 01:53:25;;;;;;;5.57;3.20;;;14.50;71.20;;;;;;6225178;22;20012;-85
2023/05/14 01:55:55;;;;;;;5.85;3.60;;;14.40;71.30;;;;;;6250770;22;20022;-85
2023/05/14 01:58:22;;;;;;;4.88;3.70;;;14.40;71.50;;;;;;6250716;22;20020;-85
2023/05/14 02:00:49;;;;;;;6.30;3.83;;;14.40;71.70;;;;;;6250661;22;20023;-85
2023/05/14 02:03:18;;;;;;;5.05;3.60;;;14.30;71.90;;;;;;6251037;22;20038;-85
2023/05/14 02:05:45;;;;;;;9.45;4.10;;;14.30;72.10;;;;;;6250668;22;20023;-85
2023/05/14 02:08:12;;;;;;;4.22;3.20;;;14.20;72.20;;;;;;6250756;22;20514;-84
2023/05/14 02:10:39;;;;;;;4.68;3.22;;;14.20;72.30;;;;;;6225246;22;20107;-84
2023/05/14 02:13:08;;;;;;;4.35;2.95;;;14.10;72.40;;;;;;6250513;22;20449;-85
2023/05/14 02:15:37;;;;;;;6.00;3.78;;;14.10;72.60;;;;;;6250688;22;20099;-85
2023/05/14 02:18:04;;;;;;;5.65;3.95;;;14.10;72.70;;;;;;6200462;22;20024;-85
2023/05/14 02:20:32;;;;;;;5.82;3.55;;;14.00;72.80;;;;;;6250791;22;20016;-85
2023/05/14 02:22:59;;;;;;;6.63;4.43;;;14.00;72.90;;;;;;6225643;22;20027;-85
2023/05/14 02:25:26;;;;;;;6.18;3.47;;;14.00;73.10;;;;;;6250432;22;20031;-85
2023/05/14 02:27:53;;;;;;;4.55;2.85;;;13.90;73.20;;;;;;6200019;22;20094;-85
2023/05/14 02:30:21;;;;;;;4.78;3.33;;;13.90;73.30;;;;;;6250771;22;20027;-85
2023/05/14 02:32:50;;;;;;;5.35;3.50;;;13.90;73.50;;;;;;6200963;22;20073;-85
2023/05/14 02:35:17;;;;;;;6.80;3.42;;;13.90;73.50;;;;;;6251022;22;20026;-85
2023/05/14 02:37:46;;;;;;;6.57;3.53;;;13.80;73.70;;;;;;6225884;22;20016;-85
2023/05/14 02:40:17;;;;;;;5.55;4.00;;;13.70;73.80;;;;;;6201096;22;20020;-85
2023/05/14 02:42:45;;;;;;;6.30;3.08;;;13.70;74.00;;;;;;6225568;22;20024;-85
2023/05/14 02:45:12;;;;;;;4.97;3.45;;;13.70;74.20;;;;;;6224976;22;20023;-85
2023/05/14 02:47:39;;;;;;;6.32;3.35;;;13.60;74.30;;;;;;6250623;22;20103;-85
2023/05/14 02:50:08;;;;;;;5.85;3.80;;;13.60;74.40;;;;;;6250933;22;20024;-85
2023/05/14 02:52:35;;;;;;;6.32;3.30;;;13.60;74.60;;;;;;6250440;22;20012;-85
2023/05/14 02:59:00;;;;;;;5.40;3.30;;;13.50;74.80;;;;;;5957571;24;20099;-85
2023/05/14 03:01:28;;;;;;;5.60;2.97;;;13.50;75.00;;;;;;5982030;24;20024;-95
2023/05/14 03:04:01;;;;;;;4.97;3.55;;;13.40;75.00;;;;;;6069533;23;20026;-94
2023/05/14 03:06:30;;;;;;;6.03;4.00;;;13.30;75.20;;;;;;6131604;23;20101;-95
2023/05/14 03:09:00;;;;;;;6.85;4.22;;;13.30;75.40;;;;;;6131072;23;20021;-93
2023/05/14 03:11:27;;;;;;;5.40;3.88;;;13.30;75.50;;;;;;6131671;23;20084;-95
2023/05/14 03:13:57;;;;;;;4.82;3.55;;;13.20;75.70;;;;;;6106802;23;20021;-95
2023/05/14 03:16:26;;;;;;;5.88;4.05;;;13.20;75.90;;;;;;6106954;23;20565;-94
2023/05/14 03:18:56;;;;;;;8.13;4.57;;;13.20;76.00;;;;;;6112462;23;20021;-94
2023/05/14 03:21:26;;;;;;;4.90;3.28;;;13.10;76.00;;;;;;6133620;23;20358;-94
2023/05/14 03:23:54;;;;;;;5.80;3.42;;;13.10;76.20;;;;;;6131195;23;20049;-94
2023/05/14 03:26:25;;;;;;;4.65;3.30;;;13.10;76.30;;;;;;6154873;23;20511;-95
2023/05/14 03:28:55;;;;;;;7.95;2.90;;;13.10;76.40;;;;;;6130304;23;20094;-94
2023/05/14 03:31:22;;;;;;;5.53;3.90;;;13.10;76.40;;;;;;6106042;23;20026;-94
2023/05/14 03:33:55;;;;;;;7.05;3.30;;;13.00;76.50;;;;;;6108316;23;20022;-95
2023/05/14 03:36:24;;;;;;;6.75;3.60;;;13.00;76.70;;;;;;6213353;22;20015;-94
2023/05/14 03:38:51;;;;;;;7.20;3.78;;;13.00;76.90;;;;;;6251274;22;20031;-94
2023/05/14 03:41:21;;;;;;;5.82;3.92;;;13.00;77.10;;;;;;6251306;22;20032;-94
2023/05/14 03:43:48;;;;;;;5.70;3.35;;;12.90;77.10;;;;;;6251005;22;20074;-94
2023/05/14 03:46:15;;;;;;;6.53;4.07;;;12.90;77.30;;;;;;6226459;22;20487;-93
2023/05/14 03:48:43;;;;;;;6.82;3.80;;;12.90;77.40;;;;;;6250910;22;20030;-94
2023/05/14 03:51:16;;;;;;;6.32;3.55;;;12.80;77.50;;;;;;6202522;22;20016;-93
2023/05/14 03:53:44;;;;;;;6.40;3.80;;;12.80;77.70;;;;;;6226227;22;20826;-94
2023/05/14 03:56:24;;;;;;;6.82;3.75;;;12.80;77.70;;;;;;6253274;22;20019;-94
2023/05/14 03:58:54;;;;;;;6.03;3.33;;;12.80;77.80;;;;;;6276569;22;20015;-93
2023/05/14 04:01:25;;;;;;;5.95;3.50;;;12.80;77.90;;;;;;6227523;22;20449;-94
2023/05/14 04:03:57;;;;;;;6.28;3.65;;;12.80;78.00;;;;;;6251887;22;20053;-94
2023/05/14 04:06:24;;;;;;;4.97;3.35;;;12.80;78.10;;;;;;6225564;22;20058;-94
2023/05/14 04:08:51;;;;;;;5.63;3.95;;;12.80;78.10;;;;;;6250533;22;20020;-94
2023/05/14 04:11:20;;;;;;;4.13;3.15;;;12.80;78.10;;;;;;6226244;22;20449;-94
2023/05/14 04:13:49;;;;;;;5.90;3.80;;;12.80;78.20;;;;;;6251659;22;20460;-93
2023/05/14 04:16:16;;;;;;;6.13;4.00;;;12.70;78.40;;;;;;6226324;22;20508;-94
2023/05/14 04:18:44;;;;;;;5.22;3.47;;;12.70;78.40;;;;;;6251204;22;20022;-94
2023/05/14 04:21:12;;;;;;;5.43;3.50;;;12.70;78.50;;;;;;6251301;22;20315;-94
2023/05/14 04:23:40;;;;;;;6.00;3.25;;;12.70;78.60;;;;;;6251374;22;20016;-94
2023/05/14 04:26:13;;;;;;;6.03;3.70;;;12.70;78.60;;;;;;6263795;22;20079;-94
2023/05/14 04:28:41;;;;;;;5.90;3.83;;;12.70;78.70;;;;;;6277278;22;20038;-93
2023/05/14 04:31:11;;;;;;;5.93;3.38;;;12.70;78.80;;;;;;6277654;22;20003;-93
2023/05/14 04:33:38;;;;;;;5.63;3.50;;;12.70;78.90;;;;;;6253686;22;20040;-94
2023/05/14 04:36:11;;;;;;;7.43;3.28;;;12.60;79.00;;;;;;6278874;22;20000;-94
2023/05/14 04:38:38;;;;;;;6.18;3.28;;;12.70;79.10;;;;;;6278214;22;20055;-93
2023/05/14 04:41:06;;;;;;;6.88;3.38;;;12.60;79.10;;;;;;6267962;22;20003;-93
2023/05/14 04:43:33;;;;;;;5.55;3.50;;;12.70;79.30;;;;;;6211796;22;20039;-94
2023/05/14 04:46:00;;;;;;;4.75;3.22;;;12.70;79.30;;;;;;6278826;22;20024;-94
2023/05/14 04:48:28;;;;;;;5.30;2.88;;;12.70;79.30;;;;;;6268303;22;20016;-94
2023/05/14 04:51:03;;;;;;;5.32;3.25;;;12.80;79.30;;;;;;6277290;22;20007;-93
2023/05/14 04:53:44;;;;;;;6.82;3.22;;;12.80;79.30;;;;;;6234436;22;20012;-94
2023/05/14 04:56:16;;;;;;;6.20;3.20;;;12.80;79.20;;;;;;6228000;22;20015;-94
2023/05/14 04:58:43;;;;;;;6.15;3.47;;;12.90;79.20;;;;;;6203517;22;20081;-94
2023/05/14 05:01:14;;;;;;;7.97;3.95;;;13.00;79.20;;;;;;6253131;22;20110;-94
2023/05/14 05:03:41;;;;;;;7.32;3.30;;;13.00;79.00;;;;;;6252975;22;20070;-93
2023/05/14 05:06:08;;;;;;;6.05;3.83;;;13.00;79.00;;;;;;6252850;22;20062;-93
2023/05/14 05:08:42;;;;;;;6.32;3.80;;;13.10;79.00;;;;;;6253441;22;20022;-93
2023/05/14 05:11:18;;;;;;;7.35;4.47;;;13.10;79.00;;;;;;6252369;22;20020;-93
2023/05/14 05:13:46;;;;;;;6.38;3.75;;;13.20;79.00;;;;;;6252935;22;20020;-93
2023/05/14 05:16:14;;;;;;;6.10;2.92;;;13.20;78.90;;;;;;6252693;22;20020;-94
2023/05/14 05:18:43;;;;;;;6.00;3.22;;;13.30;79.40;;;;;;6252610;22;20011;-94
2023/05/14 05:21:10;;;;;;;5.68;3.63;;;13.30;78.70;;;;;;6227172;22;20106;-94
2023/05/14 05:23:38;;;;;;;5.13;3.45;;;13.40;78.70;;;;;;6252242;22;20019;-93
2023/05/14 05:26:08;;;;;;;6.30;3.95;;;13.50;78.60;;;;;;6252147;22;20016;-93
2023/05/14 05:28:35;;;;;;;6.40;4.00;;;13.50;78.50;;;;;;6227062;22;20016;-93
2023/05/14 05:31:15;;;;;;;5.20;3.35;;;13.60;78.50;;;;;;6252329;22;20016;-93
2023/05/14 05:33:46;;;;;;;6.32;3.38;;;13.60;78.50;;;;;;6227925;22;20342;-94
2023/05/14 05:36:13;;;;;;;6.25;3.85;;;13.60;78.50;;;;;;6252416;22;20083;-93
2023/05/14 05:38:41;;;;;;;6.28;3.58;;;13.70;78.60;;;;;;6226683;22;20098;-93
2023/05/14 05:41:10;;;;;;;7.78;4.20;;;13.70;78.60;;;;;;6252858;22;20016;-93
2023/05/14 05:43:41;;;;;;;7.00;3.38;;;13.80;78.60;;;;;;6252639;22;20402;-93
2023/05/14 05:46:08;;;;;;;6.78;3.60;;;13.80;78.50;;;;;;6252934;22;20012;-94
2023/05/14 05:48:35;;;;;;;5.25;2.92;;;13.90;78.40;;;;;;6257266;22;20484;-93
2023/05/14 05:51:03;;;;;;;5.63;3.75;;;14.00;78.30;;;;;;6253120;22;20043;-94
2023/05/14 05:53:30;;;;;;;8.23;3.20;;;14.10;78.10;;;;;;6276584;22;20019;-94
2023/05/14 05:55:59;;;;;;;5.30;3.33;;;14.20;78.00;;;;;;6227101;22;20054;-94
2023/05/14 05:58:26;;;;;;;6.25;3.75;;;14.30;77.80;;;;;;6202286;22;20054;-94
2023/05/14 06:00:56;;;;;;;6.78;4.03;;;14.30;78.30;;;;;;6252730;22;20341;-94
2023/05/14 06:03:24;;;;;;;6.30;3.80;;;14.40;77.70;;;;;;6227124;22;20028;-94
2023/05/14 06:05:56;;;;;;;7.40;3.92;;;14.40;77.60;;;;;;6277824;22;20047;-94
2023/05/14 06:08:23;;;;;;;7.13;4.10;;;14.50;77.60;;;;;;6252387;22;20345;-94
2023/05/14 06:10:53;;;;;;;5.90;3.75;;;14.60;77.60;;;;;;6251862;22;20030;-94
2023/05/14 06:13:20;;;;;;;6.80;4.40;;;14.70;77.50;;;;;;6251808;22;20016;-94
2023/05/14 06:16:02;;;;;;;7.57;4.43;;;14.70;78.00;;;;;;6277383;22;20098;-94
2023/05/14 06:18:33;;;;;;;6.55;4.13;;;14.80;77.30;;;;;;6251738;22;20024;-94
2023/05/14 06:21:00;;;;;;;4.97;3.53;;;14.90;77.10;;;;;;6251302;22;20416;-95
2023/05/14 06:23:28;;;;;;;7.88;4.10;;;15.00;76.90;;;;;;6251915;22;20024;-95
2023/05/14 06:25:56;;;;;;;5.10;3.22;;;15.10;76.70;;;;;;6226841;22;20024;-95
2023/05/14 06:28:24;;;;;;;7.10;3.65;;;15.20;76.50;;;;;;6225613;22;20099;-94
2023/05/14 06:30:55;;;;;;;5.00;3.33;;;15.40;76.30;;;;;;6226878;22;20023;-95
2023/05/14 06:33:29;;;;;;;5.78;3.72;;;15.50;76.10;;;;;;6252223;22;20023;-94
2023/05/14 06:36:04;;;;;;;5.00;3.05;;;15.60;75.90;;;;;;6252334;22;20103;-95
2023/05/14 06:38:34;;;;;;;5.25;3.38;;;15.70;75.90;;;;;;6276724;22;20008;-95
2023/05/14 06:41:04;;;;;;;5.07;3.33;;;15.70;75.80;;;;;;6277140;22;20030;-93
2023/05/14 06:43:33;;;;;;;6.32;3.60;;;15.80;75.70;;;;;;6252256;22;20098;-94
2023/05/14 06:46:03;;;;;;;5.28;3.58;;;15.90;75.40;;;;;;6278234;22;20004;-95
2023/05/14 06:48:31;;;;;;;6.03;3.38;;;16.10;75.30;;;;;;6278202;22;20020;-94
2023/05/14 06:51:02;;;;;;;5.32;2.95;;;16.10;75.00;;;;;;6252016;22;20030;-95
2023/05/14 06:53:32;;;;;;;6.20;3.13;;;16.30;74.90;;;;;;6226682;22;20038;-95
2023/05/14 06:56:07;;;;;;;5.50;3.22;;;16.40;74.70;;;;;;6226408;22;20026;-95
2023/05/14 06:58:34;;;;;;;5.93;3.35;;;16.60;74.40;;;;;;6226387;22;20019;-94
2023/05/14 07:01:01;;;;;;;5.15;3.45;;;16.60;74.10;;;;;;6226197;22;20019;-95
2023/05/14 07:03:37;;;;;;;5.03;3.30;;;16.70;73.90;;;;;;6253308;22;20012;-95
2023/05/14 07:06:07;;;;;;;4.95;3.13;;;16.80;73.80;;;;;;6226718;22;20019;-95
2023/05/14 07:08:45;;;;;;;5.57;3.05;;;16.80;73.50;;;;;;6227157;22;20020;-94
2023/05/14 07:11:13;;;;;;;7.57;4.05;;;17.00;73.50;;;;;;6225773;22;20027;-95
2023/05/14 07:13:41;;;;;;;5.10;3.13;;;17.00;73.20;;;;;;6226136;22;20079;-95
2023/05/14 07:16:11;;;;;;;4.93;2.88;;;17.00;73.10;;;;;;6251467;22;20015;-94
2023/05/14 07:18:40;;;;;;;4.53;3.00;;;17.10;73.00;;;;;;6226752;22;20020;-92
2023/05/14 07:21:11;;;;;;;3.90;2.80;;;17.20;72.90;;;;;;6227012;22;20331;-94
2023/05/14 07:23:39;;;;;;;4.45;2.80;;;17.20;72.70;;;;;;6226269;22;20102;-94
2023/05/14 07:26:07;;;;;;;4.13;2.65;;;17.30;72.50;;;;;;6251175;22;20194;-93
2023/05/14 07:28:34;;;;;;;3.78;2.05;;;17.40;72.30;;;;;;6226610;22;20480;-94
2023/05/14 07:31:07;;;;;;;4.38;2.75;;;17.40;72.20;;;;;;6253339;22;20023;-93
2023/05/14 07:33:39;;;;;;;3.85;2.47;;;17.50;71.90;;;;;;6252176;22;20012;-92
2023/05/14 07:36:06;;;;;;;6.93;3.50;;;17.50;71.80;;;;;;6253872;22;20022;-89
2023/05/14 07:38:39;;;;;;;4.28;2.95;;;17.60;71.50;;;;;;6257813;22;20069;-93
2023/05/14 07:41:06;;;;;;;4.10;2.60;;;17.80;71.30;;;;;;6260515;22;20533;-93
2023/05/14 07:43:34;;;;;;;3.50;2.30;;;18.00;71.10;;;;;;6239150;22;20048;-93
2023/05/14 07:46:01;;;;;;;4.85;2.67;;;18.20;70.80;;;;;;6244261;22;20077;-93
2023/05/14 07:48:31;;;;;;;3.40;2.58;;;18.30;70.40;;;;;;6268891;22;20016;-93
2023/05/14 07:50:58;;;;;;;4.85;2.47;;;18.40;70.20;;;;;;6218789;22;20028;-91
2023/05/14 07:53:28;;;;;;;7.93;4.65;;;18.50;70.00;;;;;;6215182;22;20094;-92
2023/05/14 07:55:58;;;;;;;4.93;3.78;;;18.50;70.00;;;;;;6221838;22;20015;-92
2023/05/14 07:58:27;;;;;;;6.38;4.20;;;18.40;70.20;;;;;;6273437;22;20015;-94
2023/05/14 08:00:55;;;;;;;8.30;4.53;;;18.40;70.30;;;;;;6274803;22;20050;-93
2023/05/14 08:03:23;;;;;;;5.53;3.55;;;18.40;70.30;;;;;;6285941;22;20028;-95
2023/05/14 08:05:58;;;;;;;8.65;3.88;;;18.50;70.30;;;;;;6232814;22;20020;-93
2023/05/14 08:08:26;;;;;;;5.95;3.42;;;18.60;70.00;;;;;;6204584;22;20030;-92
2023/05/14 08:11:13;;;;;;;4.20;3.17;;;18.70;70.00;;;;;;6203067;22;20050;-94
2023/05/14 08:13:41;;;;;;;6.00;3.25;;;18.90;69.70;;;;;;6242637;22;20026;-92
2023/05/14 08:16:11;;;;;;;5.10;2.65;;;18.90;69.30;;;;;;6203719;22;20016;-92
2023/05/14 08:18:39;;;;;;;3.78;2.65;;;19.00;69.20;;;;;;6256319;22;20023;-91
2023/05/14 08:21:06;;;;;;;3.97;2.58;;;19.20;69.10;;;;;;6264537;22;20024;-90
2023/05/14 08:23:33;;;;;;;3.22;2.00;;;19.30;68.70;;;;;;6243487;22;20102;-92
2023/05/14 08:26:01;;;;;;;4.35;1.77;;;19.50;68.60;;;;;;6250083;22;20008;-94
2023/05/14 08:28:35;;;;;;;2.33;1.60;;;19.50;68.30;;;;;;6266321;22;20020;-94
2023/05/14 08:31:02;;;;;;;3.53;1.48;;;19.60;68.20;;;;;;6255398;22;20034;-92
2023/05/14 08:33:35;;;;;;;3.15;1.70;;;19.60;68.10;;;;;;6229698;22;20050;-95
2023/05/14 08:36:03;;;;;;;4.18;2.00;;;19.70;67.90;;;;;;6205131;22;20019;-91
2023/05/14 08:38:30;;;;;;;2.72;1.77;;;19.80;67.60;;;;;;6213380;22;20024;-89
2023/05/14 08:40:58;;;;;;;3.25;1.75;;;19.80;67.40;;;;;;6247394;22;20015;-91
2023/05/14 08:43:29;;;;;;;2.50;1.25;;;19.80;67.40;;;;;;6244170;22;20020;-90
2023/05/14 08:46:03;;;;;;;3.58;1.35;;;19.80;68.00;;;;;;6240729;22;20353;-88
2023/05/14 08:48:33;;;;;;;2.25;1.30;;;19.90;67.10;;;;;;6253529;22;20027;-87
2023/05/14 08:51:01;;;;;;;2.25;1.25;;;20.00;66.70;;;;;;6255015;22;20033;-89
2023/05/14 08:53:29;;;;;;;3.50;1.30;;;20.10;65.90;;;;;;6255029;22;20019;-87
2023/05/14 08:55:59;;;;;;;5.18;1.13;;;20.30;65.60;;;;;;6229193;22;20046;-89
2023/05/14 08:58:27;;;;;;;2.17;1.45;;;20.30;65.10;;;;;;6204494;22;20051;-91
2023/05/14 09:00:56;;;;;;;2.60;1.30;;;20.50;64.30;;;;;;6255229;22;20027;-90
2023/05/14 09:07:29;;;;;;;2.58;1.23;;;20.90;63.00;;;;;;6276410;22;20015;-87
2023/05/14 09:09:56;;;;;;;2.15;1.10;;;21.20;62.90;;;;;;6225626;22;20357;-87
2023/05/14 09:12:23;;;;;;;2.58;1.10;;;21.40;62.50;;;;;;6225499;22;20030;-90
2023/05/14 09:14:51;;;;;;;2.28;1.42;;;21.50;61.90;;;;;;6252130;22;20042;-87
2023/05/14 09:17:18;;;;;;;3.13;1.33;;;21.50;61.60;;;;;;6251030;22;20019;-87
2023/05/14 09:19:47;;;;;;;2.40;1.15;;;21.50;61.20;;;;;;6225411;22;20046;-87
2023/05/14 09:22:16;;;;;;;2.28;0.93;;;21.50;60.70;;;;;;6226446;22;20395;-87
2023/05/14 09:25:00;;;;;;;1.60;0.98;;;21.50;60.10;;;;;;6278160;22;20019;-87
2023/05/14 09:27:29;;;;;;;2.25;1.10;;;21.50;59.70;;;;;;6276109;22;20438;-87
2023/05/14 09:30:10;;;;;;;1.25;0.70;;;21.60;59.10;;;;;;6279363;22;20464;-92
2023/05/14 09:32:39;;;;;;;3.28;1.13;;;21.70;58.90;;;;;;6250878;22;20040;-87
2023/05/14 09:35:16;;;;;;;2.25;1.35;;;21.70;57.50;;;;;;6251686;22;20011;-88
2023/05/14 09:37:49;;;;;;;3.33;1.23;;;21.70;57.10;;;;;;6250757;22;20016;-87
2023/05/14 09:40:17;;;;;;;1.65;1.00;;;21.80;57.20;;;;;;6253192;22;20090;-93
2023/05/14 09:42:45;;;;;;;2.85;1.00;;;21.90;57.20;;;;;;6277012;22;20020;-88
2023/05/14 09:45:13;;;;;;;2.55;1.00;;;22.00;57.10;;;;;;6277070;22;20035;-92
2023/05/14 09:47:40;;;;;;;1.77;0.93;;;22.10;56.90;;;;;;6252757;22;20019;-93
2023/05/14 09:50:08;;;;;;;1.70;0.80;;;22.10;56.40;;;;;;6252542;22;20354;-88
2023/05/14 09:52:39;;;;;;;1.83;0.88;;;22.10;56.20;;;;;;6202199;22;20016;-91
2023/05/14 09:55:11;;;;;;;1.43;0.90;;;22.20;55.80;;;;;;6252875;22;20019;-92
2023/05/14 09:57:39;;;;;;;2.38;1.00;;;22.30;55.60;;;;;;6252302;22;20262;-94
2023/05/14 10:00:11;;;;;;;1.65;0.75;;;22.30;55.50;;;;;;6252577;22;20463;-93
2023/05/14 10:02:44;;;;;;;1.58;0.80;;;22.40;55.50;;;;;;6252734;22;20047;-91
2023/05/14 10:05:12;;;;;;;1.35;0.77;;;22.60;55.20;;;;;;6276999;22;20053;-87
2023/05/14 10:07:47;;;;;;;1.70;0.60;;;22.60;54.90;;;;;;6251722;22;20103;-92
2023/05/14 10:10:36;;;;;;;1.08;0.80;;;22.70;54.50;;;;;;6251349;22;20095;-91
2023/05/14 10:14:11;;;;;;;1.88;0.90;;;22.80;54.00;;;;;;6257530;22;20027;-92
2023/05/14 10:16:49;;;;;;;1.15;0.63;;;23.00;54.10;;;;;;6252779;22;20020;-91
2023/05/14 10:19:19;;;;;;;1.23;0.77;;;23.10;54.10;;;;;;6253427;22;20020;-92
2023/05/14 10:21:58;;;;;;;1.02;0.55;;;23.20;53.90;;;;;;6278755;22;20069;-92
2023/05/14 10:24:27;;;;;;;2.50;1.10;;;23.40;53.50;;;;;;6252399;22;20019;-93
2023/05/14 10:26:57;;;;;;;1.80;1.10;;;23.50;53.40;;;;;;6227422;22;20024;-92
2023/05/14 10:29:37;;;;;;;1.80;1.00;;;23.60;53.30;;;;;;6278138;22;20024;-93
2023/05/14 10:32:08;;;;;;;;;;;23.70;53.00;;;;;;6253523;22;20027;-92
2023/05/14 10:34:45;;;;;;;1.63;0.95;;;23.80;53.20;;;;;;6252025;22;19915;-93
2023/05/14 10:37:19;;;;;;;1.77;1.10;;;24.00;52.90;;;;;;6252276;22;20023;-93
2023/05/14 10:39:56;;;;;;;1.75;0.80;;;24.20;52.80;;;;;;6251061;22;20024;-93
2023/05/14 10:42:26;;;;;;;1.80;0.70;;;24.30;52.60;;;;;;6251363;22;20016;-93
2023/05/14 10:44:57;;;;;;;2.55;0.93;;;24.40;52.30;;;;;;6276585;22;20058;-90
2023/05/14 10:47:25;;;;;;;1.77;1.00;;;24.30;52.10;;;;;;6228030;22;20024;-91
2023/05/14 10:50:02;;;;;;;1.50;0.85;;;24.20;52.40;;;;;;6226862;22;20070;-94
2023/05/14 10:52:30;;;;;;;2.47;0.70;;;24.20;52.40;;;;;;6254264;22;20024;-95
2023/05/14 10:55:01;;;;;;;2.08;1.00;;;24.10;52.40;;;;;;6204173;22;20085;-91
2023/05/14 10:57:31;;;;;;;1.67;0.98;;;23.90;52.50;;;;;;6277012;22;20022;-88
2023/05/14 11:00:02;;;;;;;2.13;1.00;;;23.80;52.70;;;;;;6225139;22;20043;-88
2023/05/14 11:02:31;;;;;;;2.17;1.10;;;23.80;52.70;;;;;;6226583;22;20019;-88
2023/05/14 11:05:04;;;;;;;2.38;0.93;;;23.80;52.60;;;;;;6251349;22;20262;-84
2023/05/14 11:07:42;;;;;;;;;;;24.00;52.00;;;;;;6276351;22;20099;-88
2023/05/14 11:10:12;;;;;;;1.58;0.80;;;24.10;52.00;;;;;;6250957;22;19998;-91
2023/05/14 11:12:43;;;;;;;1.83;0.77;;;24.10;52.00;;;;;;6276299;22;20031;-91
2023/05/14 11:15:13;;;;;;;1.52;0.95;;;24.20;51.10;;;;;;6226139;22;20102;-88
2023/05/14 11:17:42;;;;;;;1.35;0.80;;;24.00;51.20;;;;;;6250646;22;20085;-88
2023/05/14 11:20:11;;;;;;;1.55;0.90;;;23.80;51.50;;;;;;6276475;22;20015;-87
2023/05/14 11:22:40;;;;;;;1.23;0.68;;;23.60;51.70;;;;;;6250623;22;20434;-87
2023/05/14 11:25:14;;;;;;;2.47;0.90;;;23.50;51.80;;;;;;6250481;22;20019;-86
2023/05/14 11:27:46;;;;;;;2.70;1.10;;;23.40;51.80;;;;;;6275825;22;20102;-88
2023/05/14 11:30:15;;;;;;;2.70;0.82;;;23.20;51.60;;;;;;6200913;22;20258;-87
2023/05/14 11:32:47;;;;;;;1.98;1.02;;;23.00;51.30;;;;;;6275637;22;20018;-88
2023/05/14 11:35:15;;;;;;;1.92;1.00;;;22.90;51.50;;;;;;6276235;22;20445;-88
2023/05/14 11:37:56;;;;;;;1.80;0.80;;;22.80;51.60;;;;;;6250308;22;20449;-87
2023/05/14 11:40:23;;;;;;;2.13;0.90;;;22.70;51.20;;;;;;6250036;22;20401;-87
2023/05/14 11:43:08;;;;;;;;;;;;;;;;;;;;;
2023/05/14 11:46:19;;;;;;;2.03;0.95;;;22.70;51.10;;;;;;6278416;22;20059;-93
2023/05/14 11:48:47;;;;;;;1.40;0.82;;;22.60;50.90;;;;;;6225160;22;20042;-91
2023/05/14 11:59:02;;;;;;;2.08;1.02;;;22.70;50.40;;;;;;6281368;22;20014;-92
2023/05/14 12:01:42;;;;;;;1.70;0.85;;;23.10;49.70;;;;;;6202647;22;20476;-89
2023/05/14 12:04:10;;;;;;;1.55;0.85;;;23.40;49.50;;;;;;6251323;22;20030;-91
2023/05/14 12:06:40;;;;;;;3.00;1.20;;;23.50;49.20;;;;;;6251711;22;20016;-87
2023/05/14 12:09:07;;;;;;;1.58;0.80;;;23.40;49.30;;;;;;6250916;22;20019;-89
2023/05/14 12:17:25;;;;;;;2.40;0.93;;;23.20;49.60;;;;;;6282273;22;20043;-95
2023/05/14 12:20:53;;;;;;;;;;;;;;;;;;;;;
2023/05/14 12:33:12;;;;;;;1.30;0.80;;;24.10;48.60;;;;;;6186541;23;20058;-96
2023/05/14 12:40:10;;;;;;;1.98;0.80;;;24.90;47.30;;;;;;6057932;23;20026;-96
2023/05/14 12:42:58;;;;;;;1.40;0.70;;;25.40;46.60;;;;;;6004124;23;20025;-93
2023/05/14 12:45:48;;;;;;;1.08;0.60;;;25.70;46.00;;;;;;6230129;23;20024;-93
2023/05/14 12:48:57;;;;;;;;;;;26.10;45.60;;;;;;6273250;22;20029;-96
2023/05/14 12:51:33;;;;;;;3.47;1.17;;;26.70;45.50;;;;;;6284809;22;19946;-96
2023/05/14 12:54:09;;;;;;;1.30;0.70;;;27.30;44.30;;;;;;6283854;22;20018;-92
2023/05/14 13:27:45;;;;;;;4.32;2.10;;;29.10;42.60;;;;;;6251377;22;20077;-92
2023/05/14 13:33:30;;;;;;;2.47;1.50;;;27.10;44.60;;;;;;6205610;23;20077;-96
2023/05/14 13:35:57;;;;;;;3.65;1.73;;;26.70;45.10;;;;;;6231184;22;20015;-84
2023/05/14 13:38:24;;;;;;;3.22;1.65;;;26.70;45.30;;;;;;6306639;22;20023;-85
2023/05/14 13:40:51;;;;;;;5.85;1.90;;;26.50;45.20;;;;;;6255716;22;20410;-85
2023/05/14 13:43:18;;;;;;;4.82;1.85;;;25.90;45.50;;;;;;6255935;22;20069;-85
2023/05/14 13:45:45;;;;;;;2.95;1.50;;;25.50;46.30;;;;;;6256109;22;20019;-85
2023/05/14 13:48:13;;;;;;;2.92;1.27;;;25.30;46.80;;;;;;6283974;22;20019;-92
2023/05/14 13:55:22;;;;;;;3.20;1.42;;;24.90;46.90;;;;;;6218627;23;20055;-95
2023/05/14 13:57:53;;;;;;;4.05;2.03;;;24.70;47.30;;;;;;6146947;23;20099;-96
2023/05/14 14:00:25;;;;;;;3.25;1.80;;;24.60;46.70;;;;;;6280389;22;20012;-89
2023/05/14 14:12:56;;;;;;;3.70;2.00;;;23.90;47.60;;;;;;6338121;22;20087;-89
2023/05/14 14:15:26;;;;;;;4.82;1.70;;;23.90;47.50;;;;;;6286366;22;20014;-84
2023/05/14 14:17:53;;;;;;;3.35;1.42;;;23.80;47.70;;;;;;6286421;22;20038;-84
2023/05/14 14:20:22;;;;;;;2.67;1.77;;;23.70;47.90;;;;;;6261360;22;20027;-84
2023/05/14 14:22:50;;;;;;;3.88;2.05;;;23.60;48.10;;;;;;6260440;22;20390;-84
2023/05/14 14:25:17;;;;;;;3.45;1.52;;;23.50;48.10;;;;;;6285845;22;20023;-84
2023/05/14 14:27:44;;;;;;;2.40;1.50;;;23.50;48.40;;;;;;6260570;22;20344;-84
2023/05/14 14:30:14;;;;;;;2.50;1.35;;;23.40;48.50;;;;;;6237570;22;20023;-84
2023/05/14 14:32:43;;;;;;;2.13;1.42;;;23.40;48.60;;;;;;6311816;22;20356;-84